createdAt,value
2018-07-06T07:21:22.597Z,12.00
2018-07-06T07:23:53.782Z,13.37
2018-07-06T07:26:28.599Z,11.67
2018-07-06T07:29:05.351Z,12.47
2018-07-06T08:00:52.352Z,11.23
2018-07-06T08:03:22.265Z,11.03
2018-07-06T08:05:51.618Z,11.23
2018-07-06T08:08:21.042Z,10.57
2018-07-06T08:10:50.291Z,10.77
2018-07-06T08:13:19.312Z,10.63
2018-07-06T08:15:49.157Z,10.67
2018-07-06T08:18:17.910Z,9.50
2018-07-06T08:20:46.919Z,10.17
2018-07-06T08:23:15.646Z,11.53
2018-07-06T08:25:44.380Z,10.30
2018-07-06T08:28:13.080Z,11.37
2018-07-06T08:30:41.860Z,10.93
2018-07-06T08:33:10.880Z,11.23
2018-07-06T08:35:50.886Z,9.73
2018-07-06T08:38:20.571Z,10.47
2018-07-06T08:40:49.279Z,9.53
2018-07-06T08:43:17.987Z,9.00
2018-07-06T08:45:47.046Z,9.23
2018-07-06T08:48:15.768Z,9.87
2018-07-06T08:50:44.475Z,9.87
2018-07-06T08:53:13.178Z,8.97
2018-07-06T08:55:42.543Z,8.00
2018-07-06T08:58:11.274Z,8.47
2018-07-06T09:00:39.955Z,8.97
2018-07-06T09:03:08.671Z,8.53
2018-07-06T09:05:37.386Z,9.37
2018-07-06T09:08:06.082Z,9.00
2018-07-06T09:10:34.779Z,7.80
2018-07-06T09:13:03.696Z,8.80
2018-07-06T09:15:32.425Z,9.90
2018-07-06T09:18:01.181Z,9.30
2018-07-06T09:20:29.968Z,8.27
2018-07-06T09:22:58.731Z,8.43
2018-07-06T09:25:27.668Z,8.90
2018-07-06T09:27:56.393Z,8.73
2018-07-06T09:30:25.114Z,8.57
2018-07-06T09:32:53.836Z,8.87
2018-07-06T09:35:22.550Z,9.47
2018-07-06T09:37:51.669Z,8.83
2018-07-06T09:40:20.495Z,9.67
2018-07-06T09:42:49.296Z,8.70
2018-07-06T09:45:18.658Z,8.27
2018-07-06T09:47:48.624Z,8.73
2018-07-06T09:50:17.701Z,8.83
2018-07-06T09:52:49.823Z,8.03
2018-07-06T09:55:19.011Z,8.30
2018-07-06T09:57:48.247Z,9.07
2018-07-06T10:00:22.559Z,8.40
2018-07-06T10:02:51.907Z,8.03
2018-07-06T10:07:59.814Z,8.17
2018-07-06T10:10:30.779Z,8.87
2018-07-06T10:13:01.339Z,8.80
2018-07-06T10:15:30.501Z,8.43
2018-07-06T10:17:59.798Z,8.57
2018-07-06T10:20:29.705Z,7.30
2018-07-06T10:22:58.560Z,7.90
2018-07-06T10:25:27.533Z,8.00
2018-07-06T10:28:06.095Z,7.97
2018-07-06T10:31:04.535Z,8.00
2018-07-06T10:33:33.333Z,8.40
2018-07-06T10:36:02.210Z,8.10
2018-07-06T10:38:30.984Z,8.20
2018-07-06T10:40:59.784Z,8.23
2018-07-06T10:43:28.561Z,8.27
2018-07-06T10:45:57.275Z,8.67
2018-07-06T10:48:26.085Z,7.53
2018-07-06T10:50:55.212Z,6.63
2018-07-06T10:53:24.017Z,7.43
2018-07-06T10:55:52.922Z,7.50
2018-07-06T10:58:21.762Z,8.13
2018-07-06T11:00:51.062Z,7.53
2018-07-06T11:03:19.900Z,8.27
2018-07-06T11:05:48.979Z,7.80
2018-07-06T11:08:18.340Z,8.30
2018-07-06T11:10:47.598Z,8.83
2018-07-06T11:13:16.866Z,8.23
2018-07-06T11:15:45.673Z,8.97
2018-07-06T11:18:14.781Z,8.70
2018-07-06T11:20:43.651Z,8.50
2018-07-06T11:23:12.658Z,8.17
2018-07-06T11:25:41.475Z,7.80
2018-07-06T11:28:10.196Z,8.07
2018-07-06T11:30:39.015Z,8.07
2018-07-06T11:33:07.806Z,7.77
2018-07-06T11:35:36.754Z,7.67
2018-07-06T11:38:05.864Z,7.03
2018-07-06T11:40:35.016Z,7.10
2018-07-06T11:43:04.187Z,7.77
2018-07-06T11:45:33.032Z,7.13
2018-07-06T11:48:02.212Z,6.67
2018-07-06T11:50:31.541Z,6.20
2018-07-06T11:53:00.658Z,6.30
2018-07-06T11:55:29.730Z,6.03
2018-07-06T11:57:59.686Z,6.17
2018-07-06T12:00:28.998Z,6.23
2018-07-06T12:02:57.893Z,5.87
2018-07-06T12:05:26.865Z,5.83
2018-07-06T12:07:55.810Z,5.47
2018-07-06T12:10:25.860Z,6.10
2018-07-06T12:13:01.624Z,5.33
2018-07-06T12:15:31.235Z,5.77
2018-07-06T12:18:00.491Z,6.03
2018-07-06T12:20:29.403Z,5.40
2018-07-06T12:22:58.300Z,5.20
2018-07-06T12:25:28.162Z,5.50
2018-07-06T12:27:56.952Z,5.13
2018-07-06T12:30:25.896Z,4.70
2018-07-06T12:32:54.864Z,5.20
2018-07-06T12:35:23.608Z,5.27
2018-07-06T12:37:52.399Z,5.17
2018-07-06T12:40:21.199Z,5.07
2018-07-06T12:42:49.998Z,5.27
2018-07-06T12:45:18.690Z,5.00
2018-07-06T12:47:47.576Z,4.30
2018-07-06T12:50:16.544Z,4.90
2018-07-06T12:52:45.461Z,4.97
2018-07-06T12:55:14.333Z,4.93
2018-07-06T12:57:43.144Z,5.07
2018-07-06T13:00:11.902Z,4.97
2018-07-06T13:02:40.635Z,4.57
2018-07-06T13:05:09.768Z,4.67
2018-07-06T13:07:38.500Z,5.03
2018-07-06T13:10:07.580Z,4.50
2018-07-06T13:12:36.670Z,4.17
2018-07-06T13:15:05.732Z,4.97
2018-07-06T13:17:34.829Z,4.93
2018-07-06T13:20:03.627Z,4.17
2018-07-06T13:22:32.845Z,4.17
2018-07-06T13:25:01.597Z,3.67
2018-07-06T13:27:30.767Z,4.53
2018-07-06T13:29:59.532Z,4.20
2018-07-06T13:32:28.410Z,4.27
2018-07-06T13:34:57.503Z,4.40
2018-07-06T13:37:26.621Z,3.90
2018-07-06T13:39:55.668Z,4.00
2018-07-06T13:42:24.739Z,3.93
2018-07-06T13:44:53.798Z,4.50
2018-07-06T13:47:22.520Z,4.17
2018-07-06T13:49:51.480Z,4.00
2018-07-06T13:52:20.234Z,4.20
2018-07-06T13:54:49.179Z,4.33
2018-07-06T13:57:18.372Z,3.87
2018-07-06T13:59:47.541Z,4.70
2018-07-06T14:02:16.516Z,4.10
2018-07-06T14:04:45.675Z,3.70
2018-07-06T14:07:14.849Z,4.07
2018-07-06T14:09:43.820Z,3.80
2018-07-06T14:12:12.558Z,3.93
2018-07-06T14:14:41.590Z,3.87
2018-07-06T14:17:10.463Z,3.40
2018-07-06T14:19:39.222Z,3.63
2018-07-06T14:22:08.772Z,4.17
2018-07-06T14:24:37.844Z,4.13
2018-07-06T14:27:06.963Z,4.03
2018-07-06T14:29:36.018Z,3.50
2018-07-06T14:32:05.267Z,3.60
2018-07-06T14:34:34.192Z,4.07
2018-07-06T14:37:03.160Z,4.00
2018-07-06T14:39:31.994Z,3.67
2018-07-06T14:42:01.089Z,3.90
2018-07-06T14:44:30.151Z,3.90
2018-07-06T14:46:59.544Z,3.67
2018-07-06T14:49:28.507Z,3.90
2018-07-06T14:51:57.700Z,4.00
2018-07-06T14:54:27.089Z,4.30
2018-07-06T14:56:56.167Z,4.03
2018-07-06T14:59:25.990Z,3.60
2018-07-06T15:01:54.976Z,4.00
2018-07-06T15:04:36.571Z,4.20
2018-07-06T15:07:33.094Z,3.40
2018-07-06T15:10:02.748Z,4.03
2018-07-06T15:12:31.945Z,4.07
2018-07-06T15:15:01.420Z,3.83
2018-07-06T15:17:30.179Z,4.43
2018-07-06T15:19:59.288Z,3.53
2018-07-06T15:22:28.291Z,3.57
2018-07-06T15:24:57.384Z,3.67
2018-07-06T15:27:27.034Z,4.43
2018-07-06T15:29:56.094Z,3.33
2018-07-06T15:32:25.396Z,3.50
2018-07-06T15:34:54.391Z,3.80
2018-07-06T15:37:23.904Z,3.50
2018-07-06T15:39:53.053Z,3.80
2018-07-06T15:42:22.902Z,3.70
2018-07-06T15:44:51.734Z,3.70
2018-07-06T15:47:21.038Z,3.80
2018-07-06T15:49:50.804Z,4.00
2018-07-06T15:52:21.452Z,4.20
2018-07-06T15:54:50.394Z,3.80
2018-07-06T15:57:19.595Z,3.80
2018-07-06T15:59:48.952Z,3.80
2018-07-06T16:02:28.111Z,3.93
2018-07-06T16:04:57.563Z,3.73
2018-07-06T16:07:33.087Z,3.80
2018-07-06T16:10:27.304Z,3.80
2018-07-06T16:15:58.738Z,3.90
2018-07-06T16:21:06.359Z,4.07
2018-07-06T16:23:40.434Z,3.60
2018-07-06T16:26:09.367Z,4.20
2018-07-06T16:28:38.463Z,4.20
2018-07-06T16:31:07.443Z,3.57
2018-07-06T16:33:46.820Z,4.07
2018-07-06T16:36:18.611Z,3.90
2018-07-06T16:38:49.541Z,3.10
2018-07-06T16:41:19.399Z,3.83
2018-07-06T16:43:57.632Z,3.77
2018-07-06T16:46:35.164Z,4.20
2018-07-06T16:49:06.976Z,3.70
2018-07-06T16:51:36.717Z,3.80
2018-07-06T16:54:06.947Z,3.50
2018-07-06T16:56:38.098Z,3.70
2018-07-06T16:59:07.294Z,3.37
2018-07-06T17:01:36.520Z,3.20
2018-07-06T17:04:05.456Z,3.93
2018-07-06T17:06:34.443Z,3.83
2018-07-06T17:09:04.860Z,3.70
2018-07-06T17:11:34.950Z,3.90
2018-07-06T17:14:04.180Z,3.80
2018-07-06T17:16:33.149Z,3.77
2018-07-06T17:19:01.867Z,5.63
2018-07-06T17:21:30.715Z,6.30
2018-07-06T17:23:59.724Z,5.57
2018-07-06T17:26:28.459Z,4.40
2018-07-06T17:28:57.319Z,4.10
2018-07-06T17:31:26.291Z,4.33
2018-07-06T17:33:55.075Z,5.10
2018-07-06T17:36:23.832Z,4.37
2018-07-06T17:38:52.977Z,4.37
2018-07-06T17:41:21.861Z,5.97
2018-07-06T17:43:50.930Z,5.30
2018-07-06T17:46:19.668Z,8.13
2018-07-06T17:48:48.406Z,9.30
2018-07-06T17:51:17.270Z,8.67
2018-07-06T17:53:46.027Z,8.20
2018-07-06T17:56:15.145Z,8.30
2018-07-06T17:58:44.168Z,7.17
2018-07-06T18:01:12.901Z,6.87
2018-07-06T18:03:41.659Z,5.23
2018-07-06T18:06:10.523Z,5.53
2018-07-06T18:08:39.251Z,5.03
2018-07-06T18:11:08.331Z,4.93
2018-07-06T18:13:37.275Z,5.40
2018-07-06T18:16:06.101Z,5.00
2018-07-06T18:18:34.999Z,7.33
2018-07-06T18:21:04.119Z,12.93
2018-07-06T18:23:32.817Z,6.80
2018-07-06T18:26:01.230Z,7.00
2018-07-06T18:28:29.968Z,6.13
2018-07-06T18:30:58.710Z,5.30
2018-07-06T18:33:27.748Z,5.07
2018-07-06T18:35:56.444Z,5.63
2018-07-06T18:38:25.158Z,7.47
2018-07-06T18:40:54.287Z,5.50
2018-07-06T18:43:23.101Z,5.10
2018-07-06T18:45:52.031Z,9.73
2018-07-06T18:48:20.912Z,8.03
2018-07-06T18:50:49.737Z,13.40
2018-07-06T18:53:18.588Z,5.20
2018-07-06T18:55:47.763Z,4.53
2018-07-06T18:58:16.856Z,10.83
2018-07-06T19:00:45.786Z,10.73
2018-07-06T19:03:14.883Z,8.93
2018-07-06T19:05:44.122Z,4.90
2018-07-06T19:08:12.677Z,6.70
2018-07-06T19:10:41.731Z,7.27
2018-07-06T19:13:10.850Z,6.33
2018-07-06T19:15:40.452Z,4.23
2018-07-06T19:18:10.567Z,4.60
2018-07-06T19:20:39.592Z,3.93
2018-07-06T19:23:08.855Z,4.23
2018-07-06T19:25:37.883Z,4.03
2018-07-06T19:28:06.700Z,5.10
2018-07-06T19:30:35.721Z,3.67
2018-07-06T19:33:04.930Z,4.60
2018-07-06T19:35:33.858Z,4.43
2018-07-06T19:38:06.598Z,4.20
2018-07-06T19:40:35.483Z,4.60
2018-07-06T19:43:04.367Z,4.50
2018-07-06T19:45:33.162Z,3.93
2018-07-06T19:48:02.384Z,3.70
2018-07-06T19:50:33.619Z,4.17
2018-07-06T19:53:03.577Z,4.30
2018-07-06T19:55:32.404Z,3.97
2018-07-06T19:58:03.783Z,3.93
